createdAt,value
2019-05-18T00:02:18.978Z,4.40
2019-05-18T00:04:45.250Z,4.93
2019-05-18T00:07:11.567Z,6.97
2019-05-18T00:09:37.943Z,4.33
2019-05-18T00:12:04.261Z,4.63
2019-05-18T00:14:30.409Z,6.13
2019-05-18T00:16:56.654Z,3.17
2019-05-18T00:19:22.938Z,3.27
2019-05-18T00:21:49.184Z,4.23
2019-05-18T00:24:15.438Z,4.23
2019-05-18T00:26:41.589Z,6.43
2019-05-18T00:29:07.847Z,5.77
2019-05-18T00:31:33.998Z,3.63
2019-05-18T00:34:00.265Z,5.57
2019-05-18T00:36:27.087Z,4.53
2019-05-18T00:38:53.341Z,3.37
2019-05-18T00:41:19.606Z,5.07
2019-05-18T00:43:45.872Z,3.37
2019-05-18T00:46:12.159Z,6.20
2019-05-18T00:48:38.420Z,4.77
2019-05-18T00:51:04.663Z,4.83
2019-05-18T00:53:30.962Z,4.50
2019-05-18T00:55:57.265Z,4.47
2019-05-18T00:58:23.554Z,3.70
2019-05-18T01:00:49.825Z,6.13
2019-05-18T01:03:16.105Z,4.57
2019-05-18T01:05:42.410Z,3.60
2019-05-18T01:08:08.656Z,3.73
2019-05-18T01:10:34.945Z,3.50
2019-05-18T01:13:01.393Z,3.93
2019-05-18T01:15:28.118Z,3.90
2019-05-18T01:17:57.451Z,3.87
2019-05-18T01:20:22.530Z,4.67
2019-05-18T01:22:48.850Z,4.13
2019-05-18T01:25:15.160Z,3.60
2019-05-18T01:27:41.711Z,4.50
2019-05-18T01:30:08.488Z,5.67
2019-05-18T01:32:34.795Z,5.73
2019-05-18T01:35:01.050Z,5.00
2019-05-18T01:37:27.359Z,3.80
2019-05-18T01:39:53.518Z,4.77
2019-05-18T01:42:19.833Z,5.27
2019-05-18T01:44:46.429Z,4.40
2019-05-18T01:47:14.115Z,4.33
2019-05-18T01:49:40.609Z,4.50
2019-05-18T01:52:06.982Z,3.07
2019-05-18T01:54:33.253Z,3.57
2019-05-18T01:56:59.509Z,3.87
2019-05-18T01:59:25.768Z,3.63
2019-05-18T02:01:51.894Z,3.70
2019-05-18T02:04:18.150Z,4.70
2019-05-18T02:06:44.286Z,5.13
2019-05-18T02:09:10.513Z,4.23
2019-05-18T02:11:36.820Z,3.67
2019-05-18T02:14:03.218Z,4.63
2019-05-18T02:16:29.475Z,4.20
2019-05-18T02:18:55.746Z,5.13
2019-05-18T02:21:22.065Z,5.10
2019-05-18T02:23:48.306Z,4.67
2019-05-18T02:26:14.629Z,4.40
2019-05-18T02:28:40.757Z,3.90
2019-05-18T02:31:07.050Z,3.23
2019-05-18T02:33:33.193Z,5.47
2019-05-18T02:36:00.901Z,4.37
2019-05-18T02:38:27.032Z,4.17
2019-05-18T02:40:53.325Z,4.47
2019-05-18T02:43:19.570Z,4.40
2019-05-18T02:45:45.713Z,4.77
2019-05-18T02:48:11.961Z,5.20
2019-05-18T02:50:38.546Z,3.80
2019-05-18T02:53:04.880Z,4.30
2019-05-18T02:55:31.133Z,5.37
2019-05-18T02:57:57.264Z,5.73
2019-05-18T03:00:23.533Z,5.90
2019-05-18T03:02:49.787Z,5.10
2019-05-18T03:05:16.120Z,5.37
2019-05-18T03:07:42.386Z,4.33
2019-05-18T03:10:08.771Z,5.03
2019-05-18T03:12:34.992Z,5.20
2019-05-18T03:15:01.355Z,4.80
2019-05-18T03:17:27.655Z,5.10
2019-05-18T03:19:53.922Z,5.67
2019-05-18T03:22:20.174Z,5.30
2019-05-18T03:24:46.520Z,3.33
2019-05-18T03:27:12.750Z,6.53
2019-05-18T03:29:39.401Z,6.13
2019-05-18T03:32:05.685Z,4.67
2019-05-18T03:34:32.035Z,5.27
2019-05-18T03:36:58.218Z,5.40
2019-05-18T03:39:24.567Z,5.17
2019-05-18T03:41:50.806Z,4.67
2019-05-18T03:44:17.129Z,5.30
2019-05-18T03:46:43.354Z,5.03
2019-05-18T03:49:25.452Z,6.30
2019-05-18T03:51:37.890Z,5.23
2019-05-18T03:54:04.146Z,4.90
2019-05-18T03:56:30.282Z,4.37
2019-05-18T03:58:56.422Z,4.87
2019-05-18T04:01:22.935Z,4.83
2019-05-18T04:03:49.193Z,4.00
2019-05-18T04:06:15.338Z,5.73
2019-05-18T04:08:41.515Z,6.73
2019-05-18T04:11:07.658Z,7.70
2019-05-18T04:13:34.222Z,4.70
2019-05-18T04:16:00.361Z,6.03
2019-05-18T04:18:26.658Z,6.60
2019-05-18T04:20:52.943Z,5.47
2019-05-18T04:23:19.212Z,5.53
2019-05-18T04:25:45.449Z,6.70
2019-05-18T04:28:11.681Z,5.57
2019-05-18T04:30:37.912Z,5.40
2019-05-18T04:33:04.167Z,5.90
2019-05-18T04:35:30.405Z,6.10
2019-05-18T04:37:56.695Z,5.83
2019-05-18T04:40:22.869Z,7.10
2019-05-18T04:42:49.138Z,4.93
2019-05-18T04:45:15.495Z,6.07
2019-05-18T04:47:41.686Z,6.37
2019-05-18T04:50:08.623Z,5.43
2019-05-18T04:52:34.942Z,9.80
2019-05-18T04:55:01.084Z,6.13
2019-05-18T04:57:27.235Z,7.67
2019-05-18T04:59:53.523Z,5.60
2019-05-18T05:02:19.761Z,5.63
2019-05-18T05:04:45.902Z,7.23
2019-05-18T05:07:12.148Z,6.47
2019-05-18T05:09:38.377Z,4.73
2019-05-18T05:12:04.642Z,5.27
2019-05-18T05:14:30.902Z,5.43
2019-05-18T05:16:57.371Z,5.43
2019-05-18T05:19:23.521Z,7.43
2019-05-18T05:21:49.766Z,5.80
2019-05-18T05:24:16.013Z,5.53
2019-05-18T05:26:42.158Z,4.47
2019-05-18T05:29:08.410Z,5.80
2019-05-18T05:31:34.682Z,4.93
2019-05-18T05:34:02.315Z,5.13
2019-05-18T05:36:29.497Z,7.63
2019-05-18T05:38:56.524Z,5.23
2019-05-18T05:41:23.258Z,5.10
2019-05-18T05:43:49.716Z,5.80
2019-05-18T05:46:16.173Z,6.50
2019-05-18T05:48:42.540Z,7.87
2019-05-18T05:51:09.032Z,5.20
2019-05-18T05:53:35.284Z,5.93
2019-05-18T05:56:01.434Z,6.03
2019-05-18T05:58:27.565Z,5.63
2019-05-18T06:00:53.999Z,5.43
2019-05-18T06:03:20.154Z,5.03
2019-05-18T06:05:46.437Z,4.67
2019-05-18T06:08:12.691Z,6.67
2019-05-18T06:10:39.058Z,7.07
2019-05-18T06:13:05.664Z,6.83
2019-05-18T06:15:32.145Z,5.57
2019-05-18T06:17:59.490Z,6.93
2019-05-18T06:20:26.658Z,4.73
2019-05-18T06:22:54.897Z,4.93
2019-05-18T06:25:23.698Z,4.47
2019-05-18T06:27:50.784Z,6.33
2019-05-18T06:30:17.309Z,5.20
2019-05-18T06:32:43.478Z,5.47
2019-05-18T06:35:09.874Z,7.23
2019-05-18T06:37:36.271Z,5.77
2019-05-18T06:40:02.918Z,4.00
2019-05-18T06:42:29.177Z,4.40
2019-05-18T06:44:55.437Z,5.40
2019-05-18T06:47:21.877Z,3.30
2019-05-18T06:49:48.193Z,4.43
2019-05-18T06:52:14.730Z,4.77
2019-05-18T06:54:41.093Z,4.80
2019-05-18T06:57:08.439Z,3.57
2019-05-18T06:59:36.046Z,3.63
2019-05-18T07:02:02.431Z,4.30
2019-05-18T07:04:28.690Z,2.33
2019-05-18T07:06:55.091Z,3.27
2019-05-18T07:09:21.845Z,3.43
2019-05-18T07:11:48.101Z,1.93
2019-05-18T07:14:25.337Z,3.33
2019-05-18T07:16:42.710Z,2.67
2019-05-18T07:19:08.995Z,3.30
2019-05-18T07:21:35.314Z,2.73
2019-05-18T07:24:01.737Z,2.33
2019-05-18T07:26:28.334Z,2.50
2019-05-18T07:28:54.574Z,2.13
2019-05-18T07:31:20.859Z,2.80
2019-05-18T07:33:47.103Z,2.93
2019-05-18T07:36:13.351Z,2.30
2019-05-18T07:38:39.625Z,2.97
2019-05-18T07:41:05.886Z,1.83
2019-05-18T07:43:32.143Z,2.23
2019-05-18T07:45:58.794Z,1.90
2019-05-18T07:48:25.142Z,2.00
2019-05-18T07:50:51.286Z,3.47
2019-05-18T07:53:17.587Z,2.00
2019-05-18T07:55:43.809Z,1.80
2019-05-18T07:58:10.198Z,1.40
2019-05-18T08:00:36.335Z,1.70
2019-05-18T08:03:02.631Z,2.17
2019-05-18T08:05:29.463Z,2.10
2019-05-18T08:07:56.128Z,1.93
2019-05-18T08:10:32.834Z,1.90
2019-05-18T08:12:58.969Z,1.80
2019-05-18T08:15:25.218Z,2.77
2019-05-18T08:17:51.511Z,2.20
2019-05-18T08:20:17.859Z,2.03
2019-05-18T08:22:44.119Z,1.73
2019-05-18T08:25:10.462Z,1.97
2019-05-18T08:27:36.684Z,1.83
2019-05-18T08:30:03.057Z,1.67
2019-05-18T08:32:29.935Z,2.43
2019-05-18T08:34:56.662Z,2.20
2019-05-18T08:37:23.001Z,1.97
2019-05-18T08:39:49.375Z,2.33
2019-05-18T08:42:15.648Z,1.97
2019-05-18T08:44:42.040Z,2.27
2019-05-18T08:47:08.747Z,2.23
2019-05-18T08:49:35.277Z,2.23
2019-05-18T08:52:08.225Z,2.00
2019-05-18T08:54:30.167Z,2.80
2019-05-18T08:56:56.410Z,2.20
2019-05-18T08:59:22.725Z,1.50
2019-05-18T09:01:48.874Z,1.73
2019-05-18T09:04:15.132Z,1.63
2019-05-18T09:06:41.391Z,1.60
2019-05-18T09:09:07.803Z,2.97
2019-05-18T09:11:34.271Z,1.83
2019-05-18T09:14:00.429Z,2.60
2019-05-18T09:16:26.717Z,2.30
2019-05-18T09:18:53.014Z,1.83
2019-05-18T09:21:19.439Z,2.03
2019-05-18T09:23:45.840Z,1.93
2019-05-18T09:26:12.205Z,1.87
2019-05-18T09:28:38.763Z,2.03
2019-05-18T09:31:05.094Z,1.67
2019-05-18T09:33:31.433Z,2.20
2019-05-18T09:35:57.594Z,1.53
2019-05-18T09:38:23.959Z,2.53
2019-05-18T09:40:50.234Z,2.20
2019-05-18T09:43:16.694Z,3.00
2019-05-18T09:45:43.037Z,1.63
2019-05-18T09:48:09.291Z,3.43
2019-05-18T09:50:35.625Z,1.77
2019-05-18T09:53:02.013Z,1.63
2019-05-18T09:55:28.741Z,1.60
2019-05-18T09:57:55.066Z,1.83
2019-05-18T10:00:22.038Z,1.40
2019-05-18T10:02:48.315Z,3.00
2019-05-18T10:05:14.575Z,2.43
2019-05-18T10:07:40.734Z,1.90
2019-05-18T10:10:07.668Z,1.60
2019-05-18T10:12:34.077Z,2.80
2019-05-18T10:15:00.402Z,1.40
2019-05-18T10:17:26.754Z,1.40
2019-05-18T10:19:54.100Z,1.60
2019-05-18T10:22:20.657Z,1.53
2019-05-18T10:24:47.057Z,1.90
2019-05-18T10:27:13.697Z,2.30
2019-05-18T10:29:40.066Z,1.77
2019-05-18T10:32:06.774Z,1.33
2019-05-18T10:34:37.201Z,1.40
2019-05-18T10:37:06.115Z,3.20
2019-05-18T10:39:32.146Z,1.30
2019-05-18T10:41:59.289Z,3.70
2019-05-18T10:44:26.453Z,1.70
2019-05-18T10:46:54.119Z,1.83
2019-05-18T10:49:20.658Z,1.83
2019-05-18T10:51:47.015Z,1.30
2019-05-18T10:54:13.358Z,1.70
2019-05-18T10:56:39.669Z,2.20
2019-05-18T10:59:06.038Z,1.50
2019-05-18T11:01:32.354Z,1.30
2019-05-18T11:03:58.890Z,1.50
2019-05-18T11:06:25.261Z,1.67
2019-05-18T11:08:52.613Z,1.83
2019-05-18T11:11:19.221Z,1.50
2019-05-18T11:13:45.461Z,1.47
2019-05-18T11:16:11.853Z,1.80
2019-05-18T11:18:38.147Z,1.30
2019-05-18T11:21:04.402Z,4.80
2019-05-18T11:23:42.839Z,1.30
2019-05-18T11:25:58.817Z,2.03
2019-05-18T11:28:25.062Z,2.40
2019-05-18T11:30:51.381Z,1.43
2019-05-18T11:33:17.658Z,1.47
2019-05-18T11:35:43.924Z,1.50
2019-05-18T11:38:10.178Z,2.43
2019-05-18T11:40:36.435Z,1.70
2019-05-18T11:43:02.678Z,2.07
2019-05-18T11:45:29.494Z,1.87
2019-05-18T11:47:55.764Z,1.83
2019-05-18T11:50:22.346Z,1.20
2019-05-18T11:52:48.707Z,1.53
2019-05-18T11:55:16.266Z,1.43
2019-05-18T11:57:42.786Z,1.40
2019-05-18T12:00:10.206Z,1.50
2019-05-18T12:02:36.443Z,1.43
2019-05-18T12:05:02.932Z,1.90
2019-05-18T12:07:29.191Z,1.43
2019-05-18T12:09:55.946Z,1.40
2019-05-18T12:12:22.411Z,1.70
2019-05-18T12:14:48.726Z,1.30
2019-05-18T12:17:15.466Z,1.30
2019-05-18T12:19:42.118Z,1.43
2019-05-18T12:22:08.518Z,2.97
2019-05-18T12:24:34.695Z,2.20
2019-05-18T12:27:01.025Z,9.53
2019-05-18T12:29:27.426Z,3.93
2019-05-18T12:31:53.691Z,22.07
2019-05-18T12:34:20.042Z,3.47
2019-05-18T12:36:46.406Z,7.73
2019-05-18T12:39:12.755Z,5.97
2019-05-18T12:41:39.206Z,1.20
2019-05-18T12:44:05.591Z,1.23
2019-05-18T12:46:33.347Z,1.37
2019-05-18T12:48:59.685Z,1.70
2019-05-18T12:51:25.849Z,1.10
2019-05-18T12:53:52.111Z,1.40
2019-05-18T12:56:18.471Z,1.50
2019-05-18T12:58:44.750Z,2.80
2019-05-18T13:01:11.030Z,1.30
2019-05-18T13:03:37.402Z,2.93
2019-05-18T13:06:03.964Z,1.37
2019-05-18T13:08:30.294Z,1.07
2019-05-18T13:10:56.530Z,1.23
2019-05-18T13:13:22.681Z,0.70
2019-05-18T13:15:50.010Z,1.50
2019-05-18T13:18:16.298Z,1.30
2019-05-18T13:20:42.861Z,0.90
2019-05-18T13:23:09.414Z,0.90
2019-05-18T13:25:35.685Z,1.13
2019-05-18T13:28:02.082Z,1.17
2019-05-18T13:30:28.374Z,1.57
2019-05-18T13:32:54.683Z,2.07
2019-05-18T13:35:21.616Z,2.87
2019-05-18T13:37:47.996Z,1.20
2019-05-18T13:40:14.503Z,1.50
2019-05-18T13:42:40.933Z,1.10
2019-05-18T13:45:07.390Z,0.90
2019-05-18T13:47:33.929Z,1.00
2019-05-18T13:50:00.170Z,1.53
2019-05-18T13:52:26.462Z,1.57
2019-05-18T13:55:03.128Z,1.60
2019-05-18T13:57:20.817Z,1.47
2019-05-18T13:59:47.073Z,1.10
2019-05-18T14:02:13.213Z,0.80
2019-05-18T14:04:39.381Z,1.87
2019-05-18T14:07:05.947Z,1.77
2019-05-18T14:09:32.090Z,1.37
2019-05-18T14:11:58.502Z,3.13
2019-05-18T14:14:24.667Z,4.10
2019-05-18T14:16:51.150Z,14.47
2019-05-18T14:19:17.502Z,1.53
2019-05-18T14:21:43.849Z,1.10
2019-05-18T14:24:10.414Z,1.57
2019-05-18T14:26:39.343Z,0.87
2019-05-18T14:29:05.723Z,1.27
2019-05-18T14:31:32.166Z,1.37
2019-05-18T14:33:58.656Z,2.40
2019-05-18T14:36:24.982Z,1.20
2019-05-18T14:38:56.901Z,1.33
2019-05-18T14:41:21.555Z,1.63
2019-05-18T14:43:47.930Z,1.30
2019-05-18T14:46:14.223Z,1.60
2019-05-18T14:48:41.002Z,1.73
2019-05-18T14:51:07.306Z,0.80
2019-05-18T14:53:33.838Z,1.10
2019-05-18T14:56:00.569Z,1.23
2019-05-18T14:58:26.954Z,1.50
2019-05-18T15:00:53.327Z,1.50
2019-05-18T15:03:20.140Z,1.60
2019-05-18T15:05:46.296Z,0.80
2019-05-18T15:08:12.616Z,1.13
2019-05-18T15:10:38.884Z,1.53
2019-05-18T15:13:05.574Z,2.23
2019-05-18T15:15:31.868Z,2.93
2019-05-18T15:17:58.167Z,3.67
2019-05-18T15:20:24.626Z,3.80
2019-05-18T15:22:51.156Z,4.17
2019-05-18T15:25:17.516Z,2.50
2019-05-18T15:27:43.854Z,2.57
2019-05-18T15:30:10.302Z,3.30
2019-05-18T15:32:36.649Z,3.53
2019-05-18T15:35:03.113Z,2.63
2019-05-18T15:37:29.444Z,2.47
2019-05-18T15:39:55.590Z,2.93
2019-05-18T15:42:21.875Z,2.63
2019-05-18T15:44:48.409Z,3.23
2019-05-18T15:47:14.854Z,3.07
2019-05-18T15:49:41.393Z,3.17
2019-05-18T15:52:08.175Z,6.13
2019-05-18T15:54:36.194Z,6.67
2019-05-18T15:57:02.618Z,3.90
2019-05-18T15:59:30.146Z,3.20
2019-05-18T16:01:56.520Z,4.10
2019-05-18T16:04:22.869Z,3.67
2019-05-18T16:06:49.113Z,3.60
2019-05-18T16:09:15.429Z,1.93
2019-05-18T16:11:42.046Z,5.23
2019-05-18T16:14:08.350Z,2.43
2019-05-18T16:16:34.636Z,2.13
2019-05-18T16:19:00.786Z,1.90
2019-05-18T16:21:26.938Z,1.67
2019-05-18T16:23:53.203Z,2.13
2019-05-18T16:26:21.838Z,1.40
2019-05-18T16:28:47.736Z,1.50
2019-05-18T16:31:14.137Z,2.20
2019-05-18T16:33:40.645Z,1.53
2019-05-18T16:36:07.016Z,0.80
2019-05-18T16:38:33.286Z,1.47
2019-05-18T16:40:59.644Z,0.73
2019-05-18T16:43:25.988Z,1.23
2019-05-18T16:45:52.402Z,0.70
2019-05-18T16:48:18.647Z,1.00
2019-05-18T16:50:45.479Z,2.07
2019-05-18T16:53:11.855Z,1.33
2019-05-18T16:55:38.192Z,0.87
2019-05-18T16:58:04.434Z,1.10
2019-05-18T17:00:30.871Z,1.00
2019-05-18T17:02:57.032Z,1.47
2019-05-18T17:05:23.610Z,1.70
2019-05-18T17:07:49.966Z,1.40
2019-05-18T17:10:16.281Z,1.93
2019-05-18T17:12:42.529Z,2.27
2019-05-18T17:15:09.081Z,2.57
2019-05-18T17:17:35.669Z,2.53
2019-05-18T17:20:02.094Z,3.30
2019-05-18T17:22:28.354Z,2.53
2019-05-18T17:24:54.669Z,1.90
2019-05-18T17:27:20.849Z,1.80
2019-05-18T17:29:47.146Z,2.90
2019-05-18T17:32:13.389Z,2.10
2019-05-18T17:34:39.706Z,2.00
2019-05-18T17:37:06.005Z,2.57
2019-05-18T17:39:32.648Z,2.77
2019-05-18T17:41:59.313Z,2.33
2019-05-18T17:44:25.466Z,3.17
2019-05-18T17:46:51.729Z,3.20
2019-05-18T17:49:26.663Z,2.17
2019-05-18T17:51:49.164Z,2.83
2019-05-18T17:54:15.430Z,4.00
2019-05-18T17:56:41.735Z,3.37
2019-05-18T17:59:07.929Z,3.73
2019-05-18T18:01:36.198Z,3.07
2019-05-18T18:04:02.598Z,3.93
2019-05-18T18:06:29.094Z,2.70
2019-05-18T18:08:55.295Z,3.30
2019-05-18T18:11:21.622Z,3.97
2019-05-18T18:13:47.986Z,3.60
2019-05-18T18:16:14.142Z,3.50
2019-05-18T18:18:40.394Z,2.87
2019-05-18T18:21:06.679Z,3.23
2019-05-18T18:23:32.977Z,2.17
2019-05-18T18:25:59.525Z,2.17
2019-05-18T18:28:25.798Z,5.30
2019-05-18T18:30:52.294Z,2.23
2019-05-18T18:33:18.535Z,3.47
2019-05-18T18:35:44.958Z,3.47
2019-05-18T18:38:11.206Z,4.57
2019-05-18T18:40:37.485Z,4.20
2019-05-18T18:43:03.628Z,2.83
2019-05-18T18:45:29.884Z,2.90
2019-05-18T18:47:56.398Z,6.70
2019-05-18T18:50:22.702Z,34.17
2019-05-18T18:52:48.846Z,15.87
2019-05-18T18:55:15.454Z,15.17
2019-05-18T18:57:42.503Z,10.30
2019-05-18T19:00:09.439Z,6.27
2019-05-18T19:02:35.721Z,4.07
2019-05-18T19:05:02.056Z,3.97
2019-05-18T19:07:28.232Z,2.63
2019-05-18T19:09:54.630Z,3.30
2019-05-18T19:12:20.885Z,3.03
2019-05-18T19:14:47.020Z,2.00
2019-05-18T19:17:13.165Z,2.10
2019-05-18T19:19:40.214Z,2.83
2019-05-18T19:22:06.726Z,4.27
2019-05-18T19:24:33.041Z,2.97
2019-05-18T19:26:59.310Z,4.33
2019-05-18T19:29:25.698Z,3.03
2019-05-18T19:31:52.560Z,2.90
2019-05-18T19:34:18.917Z,3.20
2019-05-18T19:36:45.249Z,4.60
2019-05-18T19:39:11.666Z,2.67
2019-05-18T19:41:38.072Z,3.30
2019-05-18T19:44:04.381Z,2.73
2019-05-18T19:46:30.555Z,2.87
2019-05-18T19:48:56.910Z,3.47
2019-05-18T19:51:23.319Z,3.20
2019-05-18T19:56:29.331Z,4.13
2019-05-18T19:58:56.798Z,2.60
2019-05-18T20:01:23.145Z,2.63
2019-05-18T20:03:50.639Z,2.73
2019-05-18T20:06:17.046Z,2.50
2019-05-18T20:08:43.435Z,3.83
2019-05-18T20:11:09.822Z,3.53
2019-05-18T20:13:36.371Z,2.63
2019-05-18T20:16:02.653Z,3.30
2019-05-18T20:18:29.042Z,3.30
2019-05-18T20:20:55.767Z,2.30
2019-05-18T20:23:22.062Z,3.47
2019-05-18T20:25:48.401Z,2.90
2019-05-18T20:28:23.441Z,2.67
2019-05-18T20:30:43.042Z,4.43
2019-05-18T20:33:09.320Z,3.13
2019-05-18T20:35:35.750Z,2.63
2019-05-18T20:38:02.122Z,3.97
2019-05-18T20:40:28.605Z,4.90
2019-05-18T20:42:54.990Z,2.87
2019-05-18T20:45:21.340Z,3.13
2019-05-18T20:47:47.787Z,3.43
2019-05-18T20:50:14.672Z,3.50
2019-05-18T20:52:41.116Z,3.00
2019-05-18T20:55:09.426Z,3.80
2019-05-18T20:57:36.237Z,2.77
2019-05-18T21:00:02.642Z,3.37
2019-05-18T21:02:29.239Z,2.57
2019-05-18T21:04:55.702Z,4.30
2019-05-18T21:07:22.190Z,3.97
2019-05-18T21:09:48.758Z,3.83
2019-05-18T21:12:15.151Z,3.50
2019-05-18T21:14:41.458Z,4.77
2019-05-18T21:17:07.831Z,3.30
2019-05-18T21:19:34.093Z,4.50
2019-05-18T21:22:00.578Z,3.37
2019-05-18T21:24:26.897Z,3.30
2019-05-18T21:26:53.221Z,4.03
2019-05-18T21:29:19.658Z,4.17
2019-05-18T21:31:45.934Z,5.30
2019-05-18T21:34:12.241Z,5.03
2019-05-18T21:36:38.734Z,5.00
2019-05-18T21:39:05.079Z,4.10
2019-05-18T21:41:31.366Z,5.40
2019-05-18T21:43:59.190Z,5.50
2019-05-18T21:46:25.469Z,4.47
2019-05-18T21:48:51.937Z,4.27
2019-05-18T21:51:18.407Z,4.80
2019-05-18T21:53:47.012Z,4.37
2019-05-18T21:56:13.501Z,4.90
2019-05-18T21:58:40.125Z,4.23
2019-05-18T22:01:06.746Z,4.60
2019-05-18T22:03:33.042Z,5.13
2019-05-18T22:05:59.459Z,5.07
2019-05-18T22:08:25.726Z,3.83
2019-05-18T22:10:52.208Z,4.53
2019-05-18T22:13:18.493Z,5.30
2019-05-18T22:15:44.886Z,6.47
2019-05-18T22:18:23.563Z,5.30
2019-05-18T22:20:43.729Z,6.03
2019-05-18T22:23:08.357Z,5.13
2019-05-18T22:25:34.714Z,6.40
2019-05-18T22:28:00.958Z,7.13
2019-05-18T22:30:27.203Z,5.43
2019-05-18T22:32:53.546Z,7.20
2019-05-18T22:35:20.140Z,5.37
2019-05-18T22:37:46.445Z,5.37
2019-05-18T22:40:12.771Z,7.93
2019-05-18T22:42:39.006Z,6.23
2019-05-18T22:45:05.345Z,6.37
2019-05-18T22:47:31.687Z,6.97
2019-05-18T22:49:58.025Z,7.50
2019-05-18T22:52:24.295Z,6.33
2019-05-18T22:54:50.797Z,5.43
2019-05-18T22:57:17.147Z,6.37
2019-05-18T22:59:43.386Z,7.57
2019-05-18T23:02:09.534Z,7.27
2019-05-18T23:04:35.759Z,5.37
2019-05-18T23:07:01.977Z,5.77
2019-05-18T23:09:28.230Z,6.50
2019-05-18T23:11:54.567Z,7.83
2019-05-18T23:14:20.814Z,6.10
2019-05-18T23:16:46.949Z,7.00
2019-05-18T23:19:13.106Z,6.10
2019-05-18T23:21:39.437Z,5.47
2019-05-18T23:24:05.625Z,6.27
2019-05-18T23:26:31.977Z,5.67
2019-05-18T23:28:58.222Z,5.67
2019-05-18T23:31:24.473Z,6.67
2019-05-18T23:33:50.739Z,5.53
2019-05-18T23:36:17.113Z,6.17
2019-05-18T23:38:43.625Z,6.67
2019-05-18T23:41:09.842Z,6.10
2019-05-18T23:43:36.029Z,5.80
2019-05-18T23:46:02.303Z,6.67
2019-05-18T23:48:28.444Z,6.77
2019-05-18T23:50:54.762Z,6.17
2019-05-18T23:53:20.897Z,5.90
2019-05-18T23:55:47.069Z,6.80
2019-05-18T23:58:13.206Z,7.40
